Time;durP1;ratioP1;P1;durP2;ratioP2;P2;SDS_P1;SDS_P2;PMS_P1;PMS_P2;Temp;Humidity;BMP_temperature;BMP_pressure;BME280_temperature;BME280_humidity;BME280_pressure;Samples;Min_cycle;Max_cycle;Signal;HPM_P1;HPM_P2
2023/03/12 00:01:17;;;;;;;5.72;2.75;;;;;;;2.81;69.03;93769.84;5131000;27;20805;-76
2023/03/12 00:03:44;;;;;;;4.68;2.75;;;;;;;2.75;69.10;93765.69;5133834;27;20285;-78
2023/03/12 00:06:11;;;;;;;2.45;1.63;;;;;;;2.75;67.90;93768.34;5144688;27;20197;-79
2023/03/12 00:08:38;;;;;;;2.28;1.45;;;;;;;2.78;68.92;93762.41;5143106;27;20256;-80
2023/03/12 00:11:11;;;;;;;3.10;2.03;;;;;;;2.80;69.09;93776.28;5143652;27;20732;-76
2023/03/12 00:13:38;;;;;;;4.85;1.77;;;;;;;2.79;68.58;93777.38;5134889;27;20708;-77
2023/03/12 00:16:08;;;;;;;6.43;3.83;;;;;;;2.69;69.28;93788.28;5139631;27;20269;-76
2023/03/12 00:18:35;;;;;;;1.35;1.25;;;;;;;2.65;69.63;93787.28;5140318;27;20332;-76
2023/03/12 00:21:02;;;;;;;2.90;2.00;;;;;;;2.68;69.95;93791.25;5150349;27;20224;-77
2023/03/12 00:23:29;;;;;;;2.53;1.27;;;;;;;2.67;70.22;93808.38;5144646;27;20205;-77
2023/03/12 00:26:00;;;;;;;1.95;1.05;;;;;;;2.61;71.13;93806.88;5129598;27;20225;-76
2023/03/12 00:28:28;;;;;;;2.42;1.73;;;;;;;2.54;69.13;93807.28;5148032;27;20549;-77
2023/03/12 00:30:57;;;;;;;9.57;3.88;;;;;;;2.59;69.69;93815.22;5142502;27;21015;-77
2023/03/12 00:33:24;;;;;;;5.18;3.67;;;;;;;2.48;70.27;93824.50;5149321;27;20229;-79
2023/03/12 00:35:50;;;;;;;6.43;3.90;;;;;;;2.52;68.91;93830.84;5146797;27;20232;-77
2023/03/12 00:38:17;;;;;;;8.00;3.65;;;;;;;2.45;69.22;93827.78;5140082;27;20200;-79
2023/03/12 00:40:44;;;;;;;4.88;3.85;;;;;;;2.49;69.11;93824.22;5135806;27;20253;-77
2023/03/12 00:43:11;;;;;;;7.25;3.83;;;;;;;2.40;69.66;93828.69;5149883;27;20204;-76
2023/03/12 00:45:39;;;;;;;9.27;3.60;;;;;;;2.42;68.96;93829.19;5149356;27;20303;-77
2023/03/12 00:48:07;;;;;;;6.70;3.20;;;;;;;2.44;68.90;93823.53;5142693;27;20250;-77
2023/03/12 00:50:36;;;;;;;11.68;3.70;;;;;;;2.41;68.88;93811.56;5144756;27;20200;-80
2023/03/12 00:53:03;;;;;;;8.05;4.40;;;;;;;2.40;69.41;93817.97;5141716;27;20217;-75
2023/03/12 00:55:31;;;;;;;6.60;3.88;;;;;;;2.40;69.48;93811.84;5144120;27;20270;-79
2023/03/12 00:57:57;;;;;;;8.27;3.78;;;;;;;2.34;69.10;93803.13;5143592;27;20208;-76
2023/03/12 01:00:24;;;;;;;3.60;3.00;;;;;;;2.44;68.82;93810.19;5148882;27;20204;-77
2023/03/12 01:02:52;;;;;;;6.68;3.58;;;;;;;2.41;69.56;93813.44;5142902;27;20529;-78
2023/03/12 01:05:19;;;;;;;5.47;3.20;;;;;;;2.40;69.58;93814.53;5139630;27;20228;-76
2023/03/12 01:07:47;;;;;;;5.65;3.50;;;;;;;2.39;69.96;93810.25;5140327;27;20205;-76
2023/03/12 01:10:15;;;;;;;6.38;4.03;;;;;;;2.35;70.61;93820.75;5145014;27;20193;-77
2023/03/12 01:12:41;;;;;;;5.35;3.47;;;;;;;2.28;70.35;93830.25;5145004;27;20703;-75
2023/03/12 01:15:09;;;;;;;3.30;3.00;;;;;;;2.27;70.17;93826.00;5132630;27;20197;-77
2023/03/12 01:17:37;;;;;;;5.88;3.53;;;;;;;2.25;70.41;93836.19;5141388;27;20714;-74
2023/03/12 01:20:07;;;;;;;4.88;3.45;;;;;;;2.19;70.71;93845.38;5145475;27;20188;-72
2023/03/12 01:22:34;;;;;;;9.30;3.55;;;;;;;2.16;71.23;93844.09;5132439;27;20659;-76
2023/03/12 01:25:00;;;;;;;5.47;3.92;;;;;;;2.16;71.94;93851.31;5135190;27;20224;-78
2023/03/12 01:27:27;;;;;;;5.68;3.80;;;;;;;2.04;71.88;93847.22;5149131;27;20196;-77
2023/03/12 01:29:54;;;;;;;4.35;3.35;;;;;;;2.09;72.46;93854.34;5147519;27;20196;-79
2023/03/12 01:32:21;;;;;;;4.88;4.20;;;;;;;2.11;71.97;93847.63;5146967;27;20204;-78
2023/03/12 01:34:48;;;;;;;5.35;3.58;;;;;;;2.11;72.22;93846.84;5146394;27;20208;-77
2023/03/12 01:37:16;;;;;;;5.70;3.47;;;;;;;2.08;72.66;93829.50;5147733;27;20200;-77
2023/03/12 01:39:43;;;;;;;7.88;3.70;;;;;;;2.15;72.35;93837.16;5144666;27;20201;-78
2023/03/12 01:42:10;;;;;;;3.78;3.40;;;;;;;2.13;72.21;93840.13;5134778;27;20268;-74
2023/03/12 01:44:51;;;;;;;5.05;3.65;;;;;;;2.11;71.88;93836.16;5134562;27;20292;-74
2023/03/12 01:47:17;;;;;;;8.63;3.90;;;;;;;2.13;72.20;93834.78;5135406;27;20197;-75
2023/03/12 01:49:46;;;;;;;3.92;3.20;;;;;;;2.12;71.90;93851.88;5140858;27;20604;-76
2023/03/12 01:52:14;;;;;;;4.50;3.10;;;;;;;2.13;70.71;93839.31;5144791;27;20208;-73
2023/03/12 01:54:47;;;;;;;7.28;3.30;;;;;;;2.08;71.60;93850.88;5141098;27;20201;-76
2023/03/12 01:57:17;;;;;;;4.40;1.75;;;;;;;2.11;70.99;93850.31;5143023;27;20204;-75
2023/03/12 01:59:47;;;;;;;2.58;1.67;;;;;;;2.04;70.43;93847.22;5140002;27;20245;-76
2023/03/12 02:02:15;;;;;;;2.25;1.58;;;;;;;2.05;70.88;93837.34;5131991;27;20201;-78
2023/03/12 02:04:44;;;;;;;5.45;1.55;;;;;;;1.93;71.60;93828.97;5140514;27;20690;-76
2023/03/12 02:07:12;;;;;;;1.73;1.30;;;;;;;2.08;71.00;93842.88;5135934;27;20204;-77
2023/03/12 02:09:45;;;;;;;1.48;1.25;;;;;;;2.10;70.47;93840.69;5149962;27;20542;-76
2023/03/12 02:12:12;;;;;;;2.72;2.08;;;;;;;2.21;69.95;93837.84;5143758;27;20189;-79
2023/03/12 02:14:39;;;;;;;0.98;0.82;;;;;;;2.09;69.58;93824.97;5142154;27;20196;-75
2023/03/12 02:17:07;;;;;;;2.70;1.33;;;;;;;2.18;69.43;93841.13;5142999;27;20794;-76
2023/03/12 02:19:42;;;;;;;1.00;0.90;;;;;;;2.25;69.61;93830.84;5130979;27;20253;-75
2023/03/12 02:22:10;;;;;;;1.33;1.23;;;;;;;2.21;68.33;93843.19;5140719;27;20677;-76
2023/03/12 02:24:45;;;;;;;5.28;3.08;;;;;;;2.17;68.55;93850.22;5153432;27;21001;-75
2023/03/12 02:27:13;;;;;;;1.90;1.25;;;;;;;2.12;69.18;93851.88;5144889;27;20191;-76
2023/03/12 02:29:44;;;;;;;1.60;1.05;;;;;;;2.04;69.75;93852.56;5139860;27;20193;-78
2023/03/12 02:32:18;;;;;;;3.75;3.28;;;;;;;2.03;69.43;93856.31;5143338;27;20193;-76
2023/03/12 02:34:46;;;;;;;7.50;3.65;;;;;;;2.01;69.58;93863.84;5146990;27;20792;-77
2023/03/12 02:37:13;;;;;;;4.53;2.92;;;;;;;1.95;70.33;93854.31;5144819;27;20291;-78
2023/03/12 02:39:42;;;;;;;3.13;2.47;;;;;;;1.94;69.09;93863.41;5135047;27;20603;-77
2023/03/12 02:42:09;;;;;;;4.82;3.38;;;;;;;1.88;69.97;93864.59;5144852;27;20196;-76
2023/03/12 02:44:37;;;;;;;3.42;2.88;;;;;;;1.81;70.59;93866.81;5133903;27;20197;-78
2023/03/12 02:47:04;;;;;;;4.13;3.10;;;;;;;1.85;70.68;93865.16;5145651;27;20257;-79
2023/03/12 02:49:33;;;;;;;4.45;3.08;;;;;;;1.89;70.87;93863.50;5139817;27;20216;-79
2023/03/12 02:52:01;;;;;;;4.30;2.58;;;;;;;1.92;71.06;93859.44;5139760;27;20201;-82
2023/03/12 02:54:28;;;;;;;4.05;3.10;;;;;;;1.89;70.42;93847.47;5146977;27;20201;-80
2023/03/12 02:56:55;;;;;;;5.13;2.95;;;;;;;1.92;70.38;93849.53;5139511;27;20547;-77
2023/03/12 02:59:25;;;;;;;3.70;2.80;;;;;;;1.99;70.50;93849.97;5153057;27;20200;-79
2023/03/12 03:01:54;;;;;;;3.60;2.92;;;;;;;1.95;71.01;93843.63;5139461;27;20202;-74
2023/03/12 03:04:21;;;;;;;5.22;3.15;;;;;;;1.89;71.11;93850.16;5133010;27;20200;-75
2023/03/12 03:06:48;;;;;;;5.30;3.00;;;;;;;1.90;70.98;93846.41;5146960;27;20277;-77
2023/03/12 03:09:15;;;;;;;4.80;2.58;;;;;;;1.86;70.64;93845.38;5152776;27;20605;-76
2023/03/12 03:11:42;;;;;;;3.92;2.63;;;;;;;1.84;70.06;93836.88;5152867;27;20341;-77
2023/03/12 03:14:09;;;;;;;3.60;2.67;;;;;;;1.81;69.57;93848.13;5153020;27;20257;-78
2023/03/12 03:16:36;;;;;;;3.78;2.80;;;;;;;1.89;68.32;93833.34;5137919;27;20233;-77
2023/03/12 03:19:05;;;;;;;2.40;2.15;;;;;;;1.86;67.96;93818.69;5144700;27;20209;-76
2023/03/12 03:21:32;;;;;;;3.38;2.50;;;;;;;1.81;68.17;93842.78;5148058;27;20565;-77
2023/03/12 03:23:59;;;;;;;4.32;2.20;;;;;;;1.80;67.00;93841.22;5143570;27;20221;-77
2023/03/12 03:26:26;;;;;;;4.22;2.40;;;;;;;1.85;68.66;93854.47;5145250;27;20231;-78
2023/03/12 03:28:53;;;;;;;2.83;2.00;;;;;;;1.78;66.93;93851.38;5136252;27;20570;-78
2023/03/12 03:31:21;;;;;;;2.10;1.70;;;;;;;1.85;67.18;93870.50;5143548;27;20273;-76
2023/03/12 03:33:48;;;;;;;2.70;2.10;;;;;;;1.78;66.25;93867.41;5141983;27;20204;-76
2023/03/12 03:36:17;;;;;;;2.20;1.63;;;;;;;1.82;65.34;93863.06;5138322;27;20688;-74
2023/03/12 03:38:48;;;;;;;2.05;1.50;;;;;;;1.92;64.73;93862.91;5141721;27;20208;-78
2023/03/12 03:41:15;;;;;;;2.88;2.00;;;;;;;1.98;65.22;93859.06;5145282;27;20194;-77
2023/03/12 03:43:42;;;;;;;2.13;1.92;;;;;;;1.93;65.28;93864.47;5142906;27;20249;-74
2023/03/12 03:46:10;;;;;;;2.60;2.00;;;;;;;1.96;64.29;93866.56;5133588;27;20281;-77
2023/03/12 03:48:37;;;;;;;3.05;2.08;;;;;;;1.98;65.25;93875.09;5143646;27;20276;-77
2023/03/12 03:51:06;;;;;;;1.55;1.00;;;;;;;1.87;65.21;93868.34;5138493;27;20201;-78
2023/03/12 03:53:34;;;;;;;2.88;1.00;;;;;;;1.92;64.27;93870.91;5138928;27;20204;-78
2023/03/12 03:56:05;;;;;;;1.00;0.90;;;;;;;2.00;64.20;93872.94;5140654;27;20690;-77
2023/03/12 03:58:32;;;;;;;2.13;1.85;;;;;;;1.94;64.41;93871.41;5151841;27;20218;-77
2023/03/12 04:00:59;;;;;;;2.05;1.80;;;;;;;1.96;64.14;93882.59;5138211;27;20254;-74
2023/03/12 04:03:26;;;;;;;4.60;1.67;;;;;;;1.88;63.62;93893.97;5151786;27;20296;-76
2023/03/12 04:05:54;;;;;;;1.20;0.77;;;;;;;1.87;64.22;93884.38;5144798;27;21005;-78
2023/03/12 04:08:21;;;;;;;2.47;1.45;;;;;;;1.94;64.52;93895.44;5145838;27;20204;-79
2023/03/12 04:10:49;;;;;;;1.08;0.98;;;;;;;1.88;64.73;93901.19;5144414;27;20201;-80
2023/03/12 04:13:16;;;;;;;0.80;0.80;;;;;;;1.76;63.54;93893.63;5145366;27;20207;-74
2023/03/12 04:15:46;;;;;;;1.00;0.85;;;;;;;1.64;63.56;93906.63;5143002;27;20675;-80
2023/03/12 04:18:13;;;;;;;2.67;1.92;;;;;;;1.59;64.29;93925.34;5144933;27;20236;-75
2023/03/12 04:20:40;;;;;;;2.83;1.40;;;;;;;1.59;64.28;93926.16;5150932;27;20200;-77
2023/03/12 04:23:07;;;;;;;2.65;1.45;;;;;;;1.58;63.58;93923.78;5148978;27;20650;-78
2023/03/12 04:25:34;;;;;;;3.42;1.80;;;;;;;1.52;64.56;93914.25;5139806;27;20236;-78
2023/03/12 04:28:02;;;;;;;1.52;0.70;;;;;;;1.52;63.93;93920.38;5149011;27;20203;-79
2023/03/12 04:30:29;;;;;;;0.55;0.55;;;;;;;1.49;64.01;93941.53;5140142;27;20201;-78
2023/03/12 04:32:55;;;;;;;0.73;0.73;;;;;;;1.45;64.38;93935.97;5147236;27;20256;-78
2023/03/12 04:35:23;;;;;;;1.98;1.27;;;;;;;1.47;63.79;93944.47;5142347;27;20221;-76
2023/03/12 04:37:50;;;;;;;4.15;1.90;;;;;;;1.59;63.21;93942.16;5134299;27;20224;-78
2023/03/12 04:40:18;;;;;;;1.48;0.95;;;;;;;1.63;62.96;93953.06;5151249;27;20195;-79
2023/03/12 04:42:46;;;;;;;1.25;0.98;;;;;;;1.67;62.36;93956.72;5133880;27;20250;-76
2023/03/12 04:45:15;;;;;;;1.30;0.85;;;;;;;1.60;63.37;93965.09;5139721;27;20705;-75
2023/03/12 04:47:41;;;;;;;1.73;0.95;;;;;;;1.62;63.63;93962.16;5136638;27;20289;-77
2023/03/12 04:50:09;;;;;;;3.25;1.17;;;;;;;1.56;63.92;93955.28;5140109;27;20983;-77
2023/03/12 04:52:36;;;;;;;2.33;1.05;;;;;;;1.53;64.14;93963.84;5143510;27;20245;-77
2023/03/12 04:55:03;;;;;;;0.73;0.73;;;;;;;1.50;63.52;93967.91;5130424;27;20562;-78
2023/03/12 04:57:30;;;;;;;2.55;1.50;;;;;;;1.64;62.30;93976.00;5143725;27;20595;-75
2023/03/12 04:59:57;;;;;;;2.05;1.70;;;;;;;1.71;61.51;93976.44;5141285;27;20289;-79
2023/03/12 05:02:25;;;;;;;1.30;1.20;;;;;;;1.77;60.96;93983.31;5146814;27;20695;-76
2023/03/12 05:04:51;;;;;;;0.60;0.60;;;;;;;1.87;58.98;93991.16;5138272;27;20201;-77
2023/03/12 05:07:18;;;;;;;0.80;0.70;;;;;;;1.93;58.09;93983.84;5148439;27;20262;-75
2023/03/12 05:09:45;;;;;;;0.30;0.30;;;;;;;2.03;58.60;94000.53;5139040;27;20203;-75
2023/03/12 05:12:12;;;;;;;0.88;0.52;;;;;;;2.06;58.25;94002.63;5144135;27;20201;-78
2023/03/12 05:14:39;;;;;;;0.30;0.30;;;;;;;2.02;59.62;94004.31;5141612;27;20204;-74
2023/03/12 05:17:06;;;;;;;0.52;0.52;;;;;;;2.41;57.30;93995.94;5136051;27;20319;-77
2023/03/12 05:19:34;;;;;;;1.00;0.50;;;;;;;3.36;54.05;93994.50;5138159;27;20215;-77
2023/03/12 05:22:01;;;;;;;0.73;0.60;;;;;;;3.69;52.22;93995.16;5149076;27;20203;-74
2023/03/12 05:24:29;;;;;;;0.40;0.40;;;;;;;4.06;51.44;94004.84;5150655;27;20201;-76
2023/03/12 05:26:56;;;;;;;0.70;0.68;;;;;;;4.20;51.73;94012.84;5129707;27;20233;-77
2023/03/12 05:29:22;;;;;;;0.50;0.50;;;;;;;4.15;51.06;94000.34;5143606;27;20200;-77
2023/03/12 05:31:49;;;;;;;0.73;0.73;;;;;;;3.67;52.34;94016.13;5136997;27;20196;-77
2023/03/12 05:34:16;;;;;;;1.95;0.82;;;;;;;3.34;53.52;94028.81;5136199;27;20246;-76
2023/03/12 05:36:45;;;;;;;0.50;0.50;;;;;;;3.72;52.57;94017.88;5149710;27;20925;-75
2023/03/12 05:39:11;;;;;;;0.90;0.80;;;;;;;4.64;51.52;94028.19;5149072;27;20257;-76
2023/03/12 05:41:38;;;;;;;1.77;1.30;;;;;;;5.27;50.16;94014.50;5129624;27;20565;-75
2023/03/12 05:44:05;;;;;;;0.60;0.60;;;;;;;5.04;50.57;94018.31;5142875;27;20658;-76
2023/03/12 05:46:32;;;;;;;3.10;0.63;;;;;;;5.48;49.77;94022.78;5136884;27;20343;-74
2023/03/12 05:48:58;;;;;;;1.63;0.80;;;;;;;5.66;47.98;94032.50;5135123;27;20249;-77
2023/03/12 05:51:25;;;;;;;0.98;0.80;;;;;;;5.27;49.23;94045.91;5137742;27;20196;-77
2023/03/12 05:53:53;;;;;;;1.05;0.80;;;;;;;5.10;48.98;94035.06;5148929;27;20256;-76
2023/03/12 05:56:20;;;;;;;2.13;0.90;;;;;;;5.88;47.92;94033.50;5141204;27;20257;-78
2023/03/12 05:58:48;;;;;;;0.60;0.60;;;;;;;6.27;46.70;94036.16;5145521;27;20200;-80
2023/03/12 06:01:18;;;;;;;0.70;0.68;;;;;;;6.28;46.66;94051.19;5149888;27;20672;-78
2023/03/12 06:03:45;;;;;;;1.13;0.88;;;;;;;6.66;46.50;94043.28;5149548;27;20200;-77
2023/03/12 06:06:12;;;;;;;0.95;0.82;;;;;;;6.58;46.33;94040.56;5138627;27;20277;-76
2023/03/12 06:08:39;;;;;;;4.90;1.63;;;;;;;6.75;45.81;94062.13;5135459;27;20193;-77
2023/03/12 06:11:07;;;;;;;3.03;1.27;;;;;;;6.93;50.47;94054.81;5139342;27;20245;-75
2023/03/12 06:13:34;;;;;;;1.23;0.93;;;;;;;7.12;51.07;94061.44;5140860;27;20193;-73
2023/03/12 06:16:05;;;;;;;1.58;1.05;;;;;;;7.25;51.72;94053.50;5138432;27;20249;-79
2023/03/12 06:18:32;;;;;;;0.65;0.52;;;;;;;6.33;50.64;94067.16;5138534;27;20234;-75
2023/03/12 06:21:09;;;;;;;3.55;1.30;;;;;;;6.43;55.33;94066.84;5143164;27;20193;-76
2023/03/12 06:23:36;;;;;;;3.28;0.85;;;;;;;6.52;49.62;94074.16;5140570;27;20242;-77
2023/03/12 06:26:02;;;;;;;2.35;1.33;;;;;;;5.75;51.60;94078.19;5142608;27;20227;-74
2023/03/12 06:28:31;;;;;;;2.78;0.70;;;;;;;6.15;50.60;94081.66;5149896;27;20211;-76
2023/03/12 06:30:58;;;;;;;1.17;0.82;;;;;;;6.14;50.65;94090.06;5143659;27;20812;-76
2023/03/12 06:33:24;;;;;;;1.10;1.08;;;;;;;5.65;51.94;94084.63;5149571;27;20272;-77
2023/03/12 06:35:54;;;;;;;2.00;1.00;;;;;;;6.01;52.42;94100.59;5136070;27;20682;-76
2023/03/12 06:38:21;;;;;;;1.35;0.90;;;;;;;5.97;52.37;94096.97;5128780;28;20239;-78
2023/03/12 06:40:54;;;;;;;1.13;1.02;;;;;;;6.10;52.63;94099.84;5142836;27;20241;-76
2023/03/12 06:43:21;;;;;;;1.05;0.98;;;;;;;5.67;52.58;94103.94;5128868;28;20185;-78
2023/03/12 06:45:49;;;;;;;1.23;1.10;;;;;;;5.90;51.98;94112.75;5127409;27;20217;-74
2023/03/12 06:48:16;;;;;;;1.20;1.10;;;;;;;6.16;52.73;94103.97;5149210;27;20200;-76
2023/03/12 06:50:43;;;;;;;2.83;1.20;;;;;;;6.09;53.17;94112.50;5149808;27;20201;-77
2023/03/12 06:53:09;;;;;;;3.00;1.63;;;;;;;5.69;53.54;94112.47;5141425;27;20208;-75
2023/03/12 06:55:36;;;;;;;3.20;1.60;;;;;;;5.93;54.86;94116.72;5139942;27;20197;-76
2023/03/12 06:58:03;;;;;;;0.95;0.82;;;;;;;6.17;53.39;94111.72;5139731;27;20213;-76
2023/03/12 07:00:30;;;;;;;2.45;1.15;;;;;;;5.50;54.82;94119.97;5144293;27;20295;-76
2023/03/12 07:02:59;;;;;;;1.15;1.05;;;;;;;5.12;55.29;94124.94;5138293;27;20200;-73
2023/03/12 07:05:25;;;;;;;1.83;1.10;;;;;;;4.83;56.83;94137.97;5136788;27;20593;-78
2023/03/12 07:07:52;;;;;;;3.60;1.40;;;;;;;4.36;57.12;94142.78;5153693;27;20219;-79
2023/03/12 07:10:19;;;;;;;1.13;0.73;;;;;;;4.38;57.41;94129.03;5141729;27;20215;-76
2023/03/12 07:12:46;;;;;;;2.10;1.40;;;;;;;4.81;57.21;94126.75;5149004;27;20196;-77
2023/03/12 07:15:13;;;;;;;0.70;0.70;;;;;;;4.61;56.00;94133.38;5143385;27;20883;-78
2023/03/12 07:17:40;;;;;;;0.80;0.80;;;;;;;4.11;56.14;94138.69;5152827;27;20235;-76
2023/03/12 07:20:10;;;;;;;1.00;0.90;;;;;;;4.45;55.52;94137.47;5138966;27;20193;-78
2023/03/12 07:22:37;;;;;;;1.52;1.02;;;;;;;3.85;55.87;94157.16;5132106;27;20197;-79
2023/03/12 07:25:04;;;;;;;1.00;0.90;;;;;;;3.68;56.46;94151.63;5146615;27;20723;-73
2023/03/12 07:27:31;;;;;;;1.60;1.13;;;;;;;3.45;57.93;94169.41;5141669;27;20708;-73
2023/03/12 07:29:58;;;;;;;1.98;1.05;;;;;;;3.38;58.05;94174.34;5144143;27;20248;-76
2023/03/12 07:32:25;;;;;;;2.47;0.80;;;;;;;3.82;58.13;94175.72;5147610;27;20619;-76
2023/03/12 07:34:52;;;;;;;1.20;0.90;;;;;;;3.75;57.86;94178.00;5139227;27;20205;-74
2023/03/12 07:37:20;;;;;;;2.10;0.93;;;;;;;3.62;58.07;94178.75;5142382;27;20909;-77
2023/03/12 07:39:50;;;;;;;2.92;1.13;;;;;;;3.58;58.34;94178.56;5123108;27;20602;-77
2023/03/12 07:42:16;;;;;;;1.85;1.17;;;;;;;4.03;57.83;94171.56;5147024;27;20200;-78
2023/03/12 07:44:43;;;;;;;0.85;0.85;;;;;;;4.63;57.11;94185.63;5146698;27;20207;-79
2023/03/12 07:47:10;;;;;;;0.85;0.80;;;;;;;4.34;56.69;94187.06;5142726;27;20224;-74
2023/03/12 07:49:38;;;;;;;1.88;1.00;;;;;;;4.56;56.16;94168.34;5145903;27;20189;-77
2023/03/12 07:52:08;;;;;;;1.85;1.60;;;;;;;3.99;53.85;94175.94;5152710;27;20240;-75
2023/03/12 07:54:38;;;;;;;1.80;1.25;;;;;;;4.48;55.07;94174.44;5143439;27;20291;-77
2023/03/12 07:57:05;;;;;;;1.20;1.10;;;;;;;4.31;54.68;94184.97;5142756;27;20253;-78
2023/03/12 07:59:32;;;;;;;0.85;0.70;;;;;;;4.31;54.35;94177.72;5146558;27;20197;-76
2023/03/12 08:01:58;;;;;;;0.90;0.80;;;;;;;4.01;53.21;94184.47;5140573;27;20893;-76
2023/03/12 08:04:25;;;;;;;5.57;1.50;;;;;;;4.09;53.93;94167.72;5145384;27;20252;-76
2023/03/12 08:06:52;;;;;;;3.30;1.42;;;;;;;3.98;53.04;94198.44;5143121;27;20653;-74
2023/03/12 08:09:19;;;;;;;1.25;1.02;;;;;;;4.17;52.11;94191.13;5138105;27;21016;-80
2023/03/12 08:11:47;;;;;;;11.77;2.45;;;;;;;4.23;53.32;94206.03;5137789;27;20207;-78
2023/03/12 08:14:14;;;;;;;1.38;0.75;;;;;;;3.94;53.32;94213.56;5141095;27;20319;-77
2023/03/12 08:16:40;;;;;;;0.65;0.60;;;;;;;4.31;52.05;94217.13;5140869;27;20293;-75
2023/03/12 08:19:07;;;;;;;2.50;1.08;;;;;;;3.84;53.35;94213.72;5140566;27;20564;-75
2023/03/12 08:21:34;;;;;;;1.23;0.63;;;;;;;4.00;53.51;94225.75;5138965;27;20985;-78
2023/03/12 08:24:01;;;;;;;2.47;0.80;;;;;;;4.11;53.04;94235.19;5139252;27;20209;-77
2023/03/12 08:26:27;;;;;;;1.40;1.15;;;;;;;4.44;53.23;94221.69;5142297;27;20204;-76
2023/03/12 08:28:59;;;;;;;0.50;0.50;;;;;;;4.52;54.29;94245.13;5140082;27;20225;-73
2023/03/12 08:31:26;;;;;;;1.38;1.05;;;;;;;4.02;53.33;94231.59;5144867;27;20216;-81
2023/03/12 08:33:53;;;;;;;2.05;1.00;;;;;;;4.12;51.50;94231.41;5137810;27;20620;-74
2023/03/12 08:36:19;;;;;;;2.40;1.23;;;;;;;4.19;53.37;94241.75;5137769;27;20606;-79
2023/03/12 08:38:46;;;;;;;3.45;1.08;;;;;;;4.23;57.24;94253.47;5142254;27;20257;-76
2023/03/12 08:41:13;;;;;;;0.52;0.52;;;;;;;4.53;55.99;94258.25;5135904;27;20193;-79
2023/03/12 08:43:40;;;;;;;2.25;1.35;;;;;;;4.72;55.27;94265.38;5140719;27;20188;-75
2023/03/12 08:46:08;;;;;;;0.60;0.60;;;;;;;4.96;55.72;94256.00;5138871;27;20760;-78
2023/03/12 08:48:35;;;;;;;2.08;1.35;;;;;;;5.25;52.07;94258.31;5140235;27;20217;-80
2023/03/12 08:51:03;;;;;;;0.95;0.70;;;;;;;4.71;53.32;94251.19;5136630;27;20200;-82
2023/03/12 08:53:30;;;;;;;0.95;0.82;;;;;;;4.49;52.21;94254.59;5135046;27;20243;-78
2023/03/12 08:55:57;;;;;;;0.90;0.88;;;;;;;4.84;52.64;94253.06;5141411;27;20208;-81
2023/03/12 08:58:25;;;;;;;1.50;1.10;;;;;;;4.80;51.04;94262.00;5137348;27;20692;-77
2023/03/12 09:00:53;;;;;;;1.08;0.93;;;;;;;4.66;52.25;94262.00;5137889;27;20224;-81
2023/03/12 09:03:21;;;;;;;1.40;1.05;;;;;;;4.53;52.24;94260.13;5138512;27;20200;-78
2023/03/12 09:05:49;;;;;;;1.50;1.08;;;;;;;4.54;51.65;94254.47;5137492;27;20196;-78
2023/03/12 09:08:17;;;;;;;1.48;0.65;;;;;;;4.81;51.65;94258.22;5137163;27;20281;-74
2023/03/12 09:10:48;;;;;;;1.65;0.93;;;;;;;4.27;51.11;94259.81;5137163;27;20355;-74
2023/03/12 09:13:16;;;;;;;1.42;1.20;;;;;;;4.36;51.77;94257.25;5140375;27;20272;-79
2023/03/12 09:15:42;;;;;;;0.95;0.70;;;;;;;4.94;52.16;94252.81;5138286;27;20249;-79
2023/03/12 09:18:09;;;;;;;4.55;1.70;;;;;;;5.08;50.77;94257.38;5136324;27;20231;-78
2023/03/12 09:20:37;;;;;;;1.13;0.75;;;;;;;4.66;51.79;94262.00;5140890;27;20196;-80
2023/03/12 09:23:04;;;;;;;1.98;1.20;;;;;;;4.22;52.37;94263.41;5140964;27;20200;-74
2023/03/12 09:25:32;;;;;;;1.30;1.20;;;;;;;4.32;52.83;94261.63;5138669;27;20254;-78
2023/03/12 09:28:01;;;;;;;2.10;0.98;;;;;;;4.47;51.37;94246.03;5135610;27;20276;-75
2023/03/12 09:30:29;;;;;;;0.52;0.52;;;;;;;4.70;51.80;94249.59;5144263;27;20224;-80
2023/03/12 09:32:55;;;;;;;1.40;1.00;;;;;;;4.40;51.33;94253.66;5138368;27;20226;-76
2023/03/12 09:35:22;;;;;;;1.73;0.90;;;;;;;4.80;52.44;94252.06;5141151;27;20619;-78
2023/03/12 09:37:51;;;;;;;0.95;0.73;;;;;;;5.04;51.82;94267.94;5138886;27;20560;-78
2023/03/12 09:40:21;;;;;;;1.85;0.90;;;;;;;4.60;50.67;94253.28;5136122;27;20208;-81
2023/03/12 09:42:52;;;;;;;1.02;0.60;;;;;;;4.60;51.86;94263.22;5138990;27;20564;-79
2023/03/12 09:45:22;;;;;;;2.33;0.90;;;;;;;4.67;50.45;94252.88;5134269;27;20914;-75
2023/03/12 09:47:51;;;;;;;1.38;1.05;;;;;;;4.64;51.42;94250.81;5136104;27;20224;-78
2023/03/12 09:50:24;;;;;;;1.38;1.20;;;;;;;4.50;51.37;94250.00;5138134;27;20196;-82
2023/03/12 09:52:59;;;;;;;2.95;1.55;;;;;;;4.84;51.15;94247.69;5134809;27;20257;-77
2023/03/12 09:55:28;;;;;;;1.98;1.15;;;;;;;4.73;50.74;94250.88;5134950;27;20196;-75
2023/03/12 09:57:57;;;;;;;0.85;0.85;;;;;;;4.70;50.58;94251.47;5140999;27;20196;-75
2023/03/12 10:00:29;;;;;;;1.23;1.05;;;;;;;4.78;49.53;94254.28;5137567;27;20213;-77
2023/03/12 10:03:10;;;;;;;0.80;0.80;;;;;;;5.08;49.61;94246.63;5141256;27;20735;-79
2023/03/12 10:05:44;;;;;;;2.63;0.70;;;;;;;5.18;50.25;94257.16;5143377;27;20215;-82
2023/03/12 10:08:23;;;;;;;0.82;0.70;;;;;;;5.31;49.63;94251.75;5142353;27;20208;-76
2023/03/12 10:10:55;;;;;;;1.13;0.80;;;;;;;5.61;51.37;94242.16;5140219;27;20184;-84
2023/03/12 10:13:46;;;;;;;1.40;1.17;;;;;;;5.56;49.52;94242.31;5141067;27;20237;-77
2023/03/12 10:16:30;;;;;;;1.02;0.75;;;;;;;5.30;49.11;94234.06;5143180;27;20192;-78
2023/03/12 10:19:16;;;;;;;2.10;1.00;;;;;;;5.36;49.72;94242.78;5140600;27;20209;-76
2023/03/12 10:21:53;;;;;;;1.40;0.95;;;;;;;5.30;49.68;94250.16;5137774;27;20718;-80
2023/03/12 10:24:35;;;;;;;0.75;0.73;;;;;;;5.75;49.56;94238.63;5137179;27;20245;-80
2023/03/12 10:27:02;;;;;;;0.88;0.88;;;;;;;6.12;48.32;94224.81;5142310;27;20208;-79
2023/03/12 10:29:32;;;;;;;1.42;1.02;;;;;;;5.89;47.21;94236.69;5141275;27;20219;-77
2023/03/12 10:32:04;;;;;;;1.00;0.85;;;;;;;5.75;47.94;94241.31;5142663;27;20253;-79
2023/03/12 10:34:36;;;;;;;1.25;0.93;;;;;;;6.05;47.34;94227.13;5139621;27;20528;-79
2023/03/12 10:37:11;;;;;;;1.27;0.80;;;;;;;6.32;47.27;94231.53;5132762;27;20193;-77
2023/03/12 10:39:40;;;;;;;1.23;1.05;;;;;;;6.46;48.06;94242.19;5141130;27;20275;-79
2023/03/12 10:42:16;;;;;;;4.47;1.02;;;;;;;6.38;47.03;94241.84;5141240;27;20201;-76
2023/03/12 10:44:43;;;;;;;1.60;0.90;;;;;;;6.50;44.77;94237.78;5140340;27;20225;-80
2023/03/12 10:47:27;;;;;;;1.10;1.00;;;;;;;6.47;45.53;94236.50;5144005;27;20287;-78
2023/03/12 10:49:54;;;;;;;1.20;1.10;;;;;;;6.67;46.09;94245.91;5145765;27;20596;-78
2023/03/12 10:52:30;;;;;;;1.83;0.90;;;;;;;6.94;45.51;94242.97;5145493;27;20196;-79
2023/03/12 10:55:12;;;;;;;1.63;1.10;;;;;;;7.07;45.58;94225.09;5124738;27;21261;-84
2023/03/12 10:57:41;;;;;;;1.00;0.90;;;;;;;6.48;44.63;94223.84;5140018;27;20241;-76
2023/03/12 11:00:12;;;;;;;1.35;0.90;;;;;;;6.19;45.07;94235.91;5143184;27;20292;-79
2023/03/12 11:02:43;;;;;;;0.77;0.70;;;;;;;6.75;44.00;94223.59;5142559;27;20197;-81
2023/03/12 11:05:21;;;;;;;1.13;0.98;;;;;;;6.42;43.73;94237.41;5142832;27;20193;-77
2023/03/12 11:07:48;;;;;;;4.47;1.35;;;;;;;6.52;44.37;94230.97;5140272;27;20276;-81
2023/03/12 11:10:21;;;;;;;2.13;1.08;;;;;;;6.74;45.61;94227.41;5141763;27;20197;-81
2023/03/12 11:13:00;;;;;;;0.98;0.85;;;;;;;6.87;45.94;94231.84;5137064;27;20202;-81
2023/03/12 11:15:30;;;;;;;1.40;1.30;;;;;;;7.09;44.65;94231.75;5148224;27;20191;-80
2023/03/12 11:18:24;;;;;;;0.80;0.80;;;;;;;6.87;44.96;94231.84;5140585;27;20238;-78
2023/03/12 11:20:52;;;;;;;2.33;1.10;;;;;;;6.46;44.29;94232.22;5137445;27;20188;-81
2023/03/12 11:23:24;;;;;;;0.70;0.70;;;;;;;6.68;45.05;94234.84;5138541;27;20192;-75
2023/03/12 11:25:55;;;;;;;3.53;1.55;;;;;;;6.82;46.27;94228.53;5142384;27;20249;-79
2023/03/12 11:28:25;;;;;;;1.80;0.88;;;;;;;7.41;45.54;94219.72;5140751;27;20818;-82
2023/03/12 11:30:54;;;;;;;0.73;0.73;;;;;;;6.54;43.94;94228.78;5141401;27;20304;-77
2023/03/12 11:33:20;;;;;;;2.72;1.25;;;;;;;6.44;44.48;94237.09;5140477;27;20275;-78
2023/03/12 11:36:00;;;;;;;0.60;0.60;;;;;;;6.69;44.70;94224.88;5136611;27;20221;-81
2023/03/12 11:38:34;;;;;;;1.17;0.80;;;;;;;6.97;45.40;94220.78;5145738;27;20197;-82
2023/03/12 11:41:17;;;;;;;1.00;0.90;;;;;;;7.11;45.29;94231.41;5138123;27;20188;-79
2023/03/12 11:43:56;;;;;;;0.98;0.93;;;;;;;7.54;43.77;94212.56;5138470;27;20193;-80
2023/03/12 11:46:35;;;;;;;1.38;0.90;;;;;;;7.50;42.67;94211.66;5140722;27;20219;-81
2023/03/12 11:49:14;;;;;;;1.58;1.20;;;;;;;7.42;42.44;94207.81;5141317;27;20224;-79